Terminal Aerodrome Forecast
Issued by NWS

Home | Current Version | Previous Version | Text Only | Print | Product List | Glossary On
Versions: 1 2 3 4 5 6 7 8 9 10 11 12 13 14 15
218
FTUS45 KABQ 252335
TAFLVS
TAF
KLVS 252335Z 2600/2624 22012G20KT P6SM VCSH SCT070 BKN110
      TEMPO 2600/2602 VRB18G30KT -TSRA BKN060CB
     FM260300 21011KT P6SM SCT070 BKN110
     FM261400 30007KT P6SM SCT120
     FM261730 05011KT P6SM FEW080
     FM262100 17010KT P6SM VCTS BKN070CB=

USA.gov is the U.S. government's official web portal to all federal, state and local government web resources and services.